sensor_id;sensor_type;location;lat;lon;timestamp;temperature;humidity
3715;DHT22;1873;49.988;8.674;2022-10-26T00:01:24;14.20;99.90
3715;DHT22;1873;49.988;8.674;2022-10-26T00:03:54;14.10;99.90
3715;DHT22;1873;49.988;8.674;2022-10-26T00:06:24;14.10;99.90
3715;DHT22;1873;49.988;8.674;2022-10-26T00:08:56;14.10;99.90
3715;DHT22;1873;49.988;8.674;2022-10-26T00:11:26;14.10;99.90
3715;DHT22;1873;49.988;8.674;2022-10-26T00:13:54;14.10;99.90
3715;DHT22;1873;49.988;8.674;2022-10-26T00:16:23;14.10;99.90
3715;DHT22;1873;49.988;8.674;2022-10-26T00:18:52;14.00;99.90
3715;DHT22;1873;49.988;8.674;2022-10-26T00:21:22;13.90;99.90
3715;DHT22;1873;49.988;8.674;2022-10-26T00:23:50;13.80;99.90
3715;DHT22;1873;49.988;8.674;2022-10-26T00:26:18;13.90;99.90
3715;DHT22;1873;49.988;8.674;2022-10-26T00:28:47;13.90;99.90
3715;DHT22;1873;49.988;8.674;2022-10-26T00:31:15;14.00;99.90
3715;DHT22;1873;49.988;8.674;2022-10-26T00:33:43;13.90;99.90
3715;DHT22;1873;49.988;8.674;2022-10-26T00:36:12;14.00;99.90
3715;DHT22;1873;49.988;8.674;2022-10-26T00:38:46;13.90;99.90
3715;DHT22;1873;49.988;8.674;2022-10-26T00:41:15;13.90;99.90
3715;DHT22;1873;49.988;8.674;2022-10-26T00:43:43;13.90;99.90
3715;DHT22;1873;49.988;8.674;2022-10-26T00:46:17;13.90;99.90
3715;DHT22;1873;49.988;8.674;2022-10-26T00:48:49;13.80;99.90
3715;DHT22;1873;49.988;8.674;2022-10-26T00:51:22;13.90;99.90
3715;DHT22;1873;49.988;8.674;2022-10-26T00:53:52;13.80;99.90
3715;DHT22;1873;49.988;8.674;2022-10-26T00:56:21;13.80;99.90
3715;DHT22;1873;49.988;8.674;2022-10-26T00:58:49;13.80;99.90
3715;DHT22;1873;49.988;8.674;2022-10-26T01:01:19;13.80;99.90
3715;DHT22;1873;49.988;8.674;2022-10-26T01:03:48;13.90;99.90
3715;DHT22;1873;49.988;8.674;2022-10-26T01:06:17;13.90;99.90
3715;DHT22;1873;49.988;8.674;2022-10-26T01:08:45;13.90;99.90
3715;DHT22;1873;49.988;8.674;2022-10-26T01:11:14;13.90;99.90
3715;DHT22;1873;49.988;8.674;2022-10-26T01:13:45;13.90;99.90
3715;DHT22;1873;49.988;8.674;2022-10-26T01:16:33;13.90;99.90
3715;DHT22;1873;49.988;8.674;2022-10-26T01:19:38;14.00;99.90
3715;DHT22;1873;49.988;8.674;2022-10-26T01:22:19;13.90;99.90
3715;DHT22;1873;49.988;8.674;2022-10-26T01:25:00;13.90;99.90
3715;DHT22;1873;49.988;8.674;2022-10-26T01:27:33;13.90;99.90
3715;DHT22;1873;49.988;8.674;2022-10-26T01:30:26;13.90;99.90
3715;DHT22;1873;49.988;8.674;2022-10-26T01:33:14;13.90;99.90
3715;DHT22;1873;49.988;8.674;2022-10-26T01:35:51;13.90;99.90
3715;DHT22;1873;49.988;8.674;2022-10-26T01:38:24;14.00;99.90
3715;DHT22;1873;49.988;8.674;2022-10-26T01:41:02;14.00;99.90
3715;DHT22;1873;49.988;8.674;2022-10-26T01:43:34;14.00;99.90
3715;DHT22;1873;49.988;8.674;2022-10-26T01:46:06;14.00;99.90
3715;DHT22;1873;49.988;8.674;2022-10-26T01:48:36;13.90;99.90
3715;DHT22;1873;49.988;8.674;2022-10-26T01:51:06;13.90;99.90
3715;DHT22;1873;49.988;8.674;2022-10-26T01:53:43;14.00;99.90
3715;DHT22;1873;49.988;8.674;2022-10-26T01:56:15;14.00;99.90
3715;DHT22;1873;49.988;8.674;2022-10-26T01:59:12;14.00;99.90
3715;DHT22;1873;49.988;8.674;2022-10-26T02:02:17;14.00;99.90
3715;DHT22;1873;49.988;8.674;2022-10-26T02:05:06;14.00;99.90
3715;DHT22;1873;49.988;8.674;2022-10-26T02:07:43;14.00;99.90
3715;DHT22;1873;49.988;8.674;2022-10-26T02:10:19;14.00;99.90
3715;DHT22;1873;49.988;8.674;2022-10-26T02:12:58;13.90;99.90
3715;DHT22;1873;49.988;8.674;2022-10-26T02:15:36;13.90;99.90
3715;DHT22;1873;49.988;8.674;2022-10-26T02:18:14;14.00;99.90
3715;DHT22;1873;49.988;8.674;2022-10-26T02:20:49;14.00;99.90
3715;DHT22;1873;49.988;8.674;2022-10-26T02:23:19;14.00;99.90
3715;DHT22;1873;49.988;8.674;2022-10-26T02:25:53;14.00;99.90
3715;DHT22;1873;49.988;8.674;2022-10-26T02:28:27;14.00;99.90
3715;DHT22;1873;49.988;8.674;2022-10-26T02:30:59;13.90;99.90
3715;DHT22;1873;49.988;8.674;2022-10-26T02:33:32;13.80;99.90
3715;DHT22;1873;49.988;8.674;2022-10-26T02:36:06;13.80;99.90
3715;DHT22;1873;49.988;8.674;2022-10-26T02:38:37;13.90;99.90
3715;DHT22;1873;49.988;8.674;2022-10-26T02:41:07;13.90;99.90
3715;DHT22;1873;49.988;8.674;2022-10-26T02:43:42;13.90;99.90
3715;DHT22;1873;49.988;8.674;2022-10-26T02:46:14;13.90;99.90
3715;DHT22;1873;49.988;8.674;2022-10-26T02:48:46;13.90;99.90
3715;DHT22;1873;49.988;8.674;2022-10-26T02:51:17;13.90;99.90
3715;DHT22;1873;49.988;8.674;2022-10-26T02:53:50;14.00;99.90
3715;DHT22;1873;49.988;8.674;2022-10-26T02:56:24;14.00;99.90
3715;DHT22;1873;49.988;8.674;2022-10-26T02:58:56;14.00;99.90
3715;DHT22;1873;49.988;8.674;2022-10-26T03:01:27;13.90;99.90
3715;DHT22;1873;49.988;8.674;2022-10-26T03:03:57;14.00;99.90
3715;DHT22;1873;49.988;8.674;2022-10-26T03:06:26;14.00;99.90
3715;DHT22;1873;49.988;8.674;2022-10-26T03:08:54;14.00;99.90
3715;DHT22;1873;49.988;8.674;2022-10-26T03:11:23;14.00;99.90
3715;DHT22;1873;49.988;8.674;2022-10-26T03:13:52;14.00;99.90
3715;DHT22;1873;49.988;8.674;2022-10-26T03:16:20;14.00;99.90
3715;DHT22;1873;49.988;8.674;2022-10-26T03:18:48;13.90;99.90
3715;DHT22;1873;49.988;8.674;2022-10-26T03:21:18;13.90;99.90
3715;DHT22;1873;49.988;8.674;2022-10-26T03:23:46;13.90;99.90
3715;DHT22;1873;49.988;8.674;2022-10-26T03:26:16;14.00;99.90
3715;DHT22;1873;49.988;8.674;2022-10-26T03:28:44;14.00;99.90
3715;DHT22;1873;49.988;8.674;2022-10-26T03:31:12;14.00;99.90
3715;DHT22;1873;49.988;8.674;2022-10-26T03:33:40;13.90;99.90
3715;DHT22;1873;49.988;8.674;2022-10-26T03:36:09;14.00;99.90
3715;DHT22;1873;49.988;8.674;2022-10-26T03:38:39;13.90;99.90
3715;DHT22;1873;49.988;8.674;2022-10-26T03:41:07;13.90;99.90
3715;DHT22;1873;49.988;8.674;2022-10-26T03:43:35;14.00;99.90
3715;DHT22;1873;49.988;8.674;2022-10-26T03:46:03;13.90;99.90
3715;DHT22;1873;49.988;8.674;2022-10-26T03:48:31;13.90;99.90
3715;DHT22;1873;49.988;8.674;2022-10-26T03:51:00;13.90;99.90
3715;DHT22;1873;49.988;8.674;2022-10-26T03:53:28;13.90;99.90
3715;DHT22;1873;49.988;8.674;2022-10-26T03:55:58;13.80;99.90
3715;DHT22;1873;49.988;8.674;2022-10-26T03:58:26;13.90;99.90
3715;DHT22;1873;49.988;8.674;2022-10-26T04:00:54;13.80;99.90
3715;DHT22;1873;49.988;8.674;2022-10-26T04:03:23;13.90;99.90
3715;DHT22;1873;49.988;8.674;2022-10-26T04:05:51;13.90;99.90
3715;DHT22;1873;49.988;8.674;2022-10-26T04:08:19;13.80;99.90
3715;DHT22;1873;49.988;8.674;2022-10-26T04:10:48;13.80;99.90
3715;DHT22;1873;49.988;8.674;2022-10-26T04:13:18;13.80;99.90
3715;DHT22;1873;49.988;8.674;2022-10-26T04:15:46;13.80;99.90
3715;DHT22;1873;49.988;8.674;2022-10-26T04:18:14;13.80;99.90
3715;DHT22;1873;49.988;8.674;2022-10-26T04:20:42;13.80;99.90
3715;DHT22;1873;49.988;8.674;2022-10-26T04:23:13;13.80;99.90
3715;DHT22;1873;49.988;8.674;2022-10-26T04:25:42;13.80;99.90
3715;DHT22;1873;49.988;8.674;2022-10-26T04:28:12;13.80;99.90
3715;DHT22;1873;49.988;8.674;2022-10-26T04:30:42;13.80;99.90
3715;DHT22;1873;49.988;8.674;2022-10-26T04:33:10;13.80;99.90
3715;DHT22;1873;49.988;8.674;2022-10-26T04:35:38;13.80;99.90
3715;DHT22;1873;49.988;8.674;2022-10-26T04:38:06;13.70;99.90
3715;DHT22;1873;49.988;8.674;2022-10-26T04:40:35;13.70;99.90
3715;DHT22;1873;49.988;8.674;2022-10-26T04:43:03;13.70;99.90
3715;DHT22;1873;49.988;8.674;2022-10-26T04:45:31;13.70;99.90
3715;DHT22;1873;49.988;8.674;2022-10-26T04:48:03;13.60;99.90
3715;DHT22;1873;49.988;8.674;2022-10-26T04:50:31;13.60;99.90
3715;DHT22;1873;49.988;8.674;2022-10-26T04:53:00;13.60;99.90
3715;DHT22;1873;49.988;8.674;2022-10-26T04:55:29;13.60;99.90
3715;DHT22;1873;49.988;8.674;2022-10-26T04:57:57;13.60;99.90
3715;DHT22;1873;49.988;8.674;2022-10-26T05:00:28;13.60;99.90
3715;DHT22;1873;49.988;8.674;2022-10-26T05:02:59;13.60;99.90
3715;DHT22;1873;49.988;8.674;2022-10-26T05:05:30;13.60;99.90
3715;DHT22;1873;49.988;8.674;2022-10-26T05:08:00;13.70;99.90
3715;DHT22;1873;49.988;8.674;2022-10-26T05:10:29;13.70;99.90
3715;DHT22;1873;49.988;8.674;2022-10-26T05:12:58;13.80;99.90
3715;DHT22;1873;49.988;8.674;2022-10-26T05:15:28;13.80;99.90
3715;DHT22;1873;49.988;8.674;2022-10-26T05:18:01;13.80;99.90
3715;DHT22;1873;49.988;8.674;2022-10-26T05:20:34;13.80;99.90
3715;DHT22;1873;49.988;8.674;2022-10-26T05:23:10;13.80;99.90
3715;DHT22;1873;49.988;8.674;2022-10-26T05:25:38;13.80;99.90
3715;DHT22;1873;49.988;8.674;2022-10-26T05:28:09;13.80;99.90
3715;DHT22;1873;49.988;8.674;2022-10-26T05:30:39;13.80;99.90
3715;DHT22;1873;49.988;8.674;2022-10-26T05:33:09;13.80;99.90
3715;DHT22;1873;49.988;8.674;2022-10-26T05:35:39;13.80;99.90
3715;DHT22;1873;49.988;8.674;2022-10-26T05:38:08;13.80;99.90
3715;DHT22;1873;49.988;8.674;2022-10-26T05:40:38;13.70;99.90
3715;DHT22;1873;49.988;8.674;2022-10-26T05:43:13;13.70;99.90
3715;DHT22;1873;49.988;8.674;2022-10-26T05:45:41;13.70;99.90
3715;DHT22;1873;49.988;8.674;2022-10-26T05:48:10;13.60;99.90
3715;DHT22;1873;49.988;8.674;2022-10-26T05:50:40;13.60;99.90
3715;DHT22;1873;49.988;8.674;2022-10-26T05:53:08;13.70;99.90
3715;DHT22;1873;49.988;8.674;2022-10-26T05:55:37;13.60;99.90
3715;DHT22;1873;49.988;8.674;2022-10-26T05:58:09;13.70;99.90
3715;DHT22;1873;49.988;8.674;2022-10-26T06:00:46;13.70;99.90
3715;DHT22;1873;49.988;8.674;2022-10-26T06:03:26;13.70;99.90
3715;DHT22;1873;49.988;8.674;2022-10-26T06:06:00;13.70;99.90
3715;DHT22;1873;49.988;8.674;2022-10-26T06:08:33;13.70;99.90
3715;DHT22;1873;49.988;8.674;2022-10-26T06:11:02;13.70;99.90
3715;DHT22;1873;49.988;8.674;2022-10-26T06:13:33;13.70;99.90
3715;DHT22;1873;49.988;8.674;2022-10-26T06:16:13;13.70;99.90
3715;DHT22;1873;49.988;8.674;2022-10-26T06:18:50;13.70;99.90
3715;DHT22;1873;49.988;8.674;2022-10-26T06:21:44;13.70;99.90
3715;DHT22;1873;49.988;8.674;2022-10-26T06:24:21;13.70;99.90
3715;DHT22;1873;49.988;8.674;2022-10-26T06:26:56;13.70;99.90
3715;DHT22;1873;49.988;8.674;2022-10-26T06:29:35;13.70;99.90
3715;DHT22;1873;49.988;8.674;2022-10-26T06:32:06;13.60;99.90
3715;DHT22;1873;49.988;8.674;2022-10-26T06:34:36;13.60;99.90
3715;DHT22;1873;49.988;8.674;2022-10-26T06:37:08;13.50;99.90
3715;DHT22;1873;49.988;8.674;2022-10-26T06:39:41;13.50;99.90
3715;DHT22;1873;49.988;8.674;2022-10-26T06:42:13;13.50;99.90
3715;DHT22;1873;49.988;8.674;2022-10-26T06:44:43;13.50;99.90
3715;DHT22;1873;49.988;8.674;2022-10-26T06:47:16;13.40;99.90
3715;DHT22;1873;49.988;8.674;2022-10-26T06:49:56;13.30;99.90
3715;DHT22;1873;49.988;8.674;2022-10-26T06:52:32;13.30;99.90
3715;DHT22;1873;49.988;8.674;2022-10-26T06:55:03;13.30;99.90
3715;DHT22;1873;49.988;8.674;2022-10-26T06:57:34;13.40;99.90
3715;DHT22;1873;49.988;8.674;2022-10-26T07:00:06;13.30;99.90
3715;DHT22;1873;49.988;8.674;2022-10-26T07:02:35;13.40;99.90
3715;DHT22;1873;49.988;8.674;2022-10-26T07:05:04;13.40;99.90
3715;DHT22;1873;49.988;8.674;2022-10-26T07:07:40;13.30;99.90
3715;DHT22;1873;49.988;8.674;2022-10-26T07:10:09;13.40;99.90
3715;DHT22;1873;49.988;8.674;2022-10-26T07:12:38;13.40;99.90
3715;DHT22;1873;49.988;8.674;2022-10-26T07:15:07;13.40;99.90
3715;DHT22;1873;49.988;8.674;2022-10-26T07:17:41;13.50;99.90
3715;DHT22;1873;49.988;8.674;2022-10-26T07:20:11;13.50;99.90
3715;DHT22;1873;49.988;8.674;2022-10-26T07:22:40;13.60;99.90
3715;DHT22;1873;49.988;8.674;2022-10-26T07:25:10;13.60;99.90
3715;DHT22;1873;49.988;8.674;2022-10-26T07:27:38;13.60;99.90
3715;DHT22;1873;49.988;8.674;2022-10-26T07:30:09;13.60;99.90
3715;DHT22;1873;49.988;8.674;2022-10-26T07:32:41;13.60;99.90
3715;DHT22;1873;49.988;8.674;2022-10-26T07:35:10;13.60;99.90
3715;DHT22;1873;49.988;8.674;2022-10-26T07:37:38;13.60;99.90
3715;DHT22;1873;49.988;8.674;2022-10-26T07:40:10;13.60;99.90
3715;DHT22;1873;49.988;8.674;2022-10-26T07:42:38;13.60;99.90
3715;DHT22;1873;49.988;8.674;2022-10-26T07:45:11;13.60;99.90
3715;DHT22;1873;49.988;8.674;2022-10-26T07:47:39;13.60;99.90
3715;DHT22;1873;49.988;8.674;2022-10-26T07:50:08;13.50;99.90
3715;DHT22;1873;49.988;8.674;2022-10-26T07:52:39;13.50;99.90
3715;DHT22;1873;49.988;8.674;2022-10-26T07:55:10;13.50;99.90
3715;DHT22;1873;49.988;8.674;2022-10-26T07:57:39;13.50;99.90
3715;DHT22;1873;49.988;8.674;2022-10-26T08:00:08;13.60;99.90
3715;DHT22;1873;49.988;8.674;2022-10-26T08:02:37;13.60;99.90
3715;DHT22;1873;49.988;8.674;2022-10-26T08:05:06;13.60;99.90
3715;DHT22;1873;49.988;8.674;2022-10-26T08:07:39;13.60;99.90
3715;DHT22;1873;49.988;8.674;2022-10-26T08:10:11;13.70;99.90
3715;DHT22;1873;49.988;8.674;2022-10-26T08:12:41;13.80;99.90
3715;DHT22;1873;49.988;8.674;2022-10-26T08:15:10;13.90;99.90
3715;DHT22;1873;49.988;8.674;2022-10-26T08:17:38;13.90;99.90
3715;DHT22;1873;49.988;8.674;2022-10-26T08:20:09;14.00;99.90
3715;DHT22;1873;49.988;8.674;2022-10-26T08:22:38;14.00;99.90
3715;DHT22;1873;49.988;8.674;2022-10-26T08:25:07;14.10;99.90
3715;DHT22;1873;49.988;8.674;2022-10-26T08:27:37;14.10;99.90
3715;DHT22;1873;49.988;8.674;2022-10-26T08:30:06;14.10;99.90
3715;DHT22;1873;49.988;8.674;2022-10-26T08:32:34;14.10;99.90
3715;DHT22;1873;49.988;8.674;2022-10-26T08:35:03;14.20;99.90
3715;DHT22;1873;49.988;8.674;2022-10-26T08:37:31;14.30;99.90
3715;DHT22;1873;49.988;8.674;2022-10-26T08:39:59;14.30;99.90
3715;DHT22;1873;49.988;8.674;2022-10-26T08:42:32;14.30;99.90
3715;DHT22;1873;49.988;8.674;2022-10-26T08:45:09;14.40;99.90
3715;DHT22;1873;49.988;8.674;2022-10-26T08:47:42;14.40;99.90
3715;DHT22;1873;49.988;8.674;2022-10-26T08:50:22;14.40;99.90
3715;DHT22;1873;49.988;8.674;2022-10-26T08:52:57;14.50;99.90
3715;DHT22;1873;49.988;8.674;2022-10-26T08:55:33;14.60;99.90
3715;DHT22;1873;49.988;8.674;2022-10-26T08:58:11;14.60;99.90
3715;DHT22;1873;49.988;8.674;2022-10-26T09:00:44;14.70;99.90
3715;DHT22;1873;49.988;8.674;2022-10-26T09:03:15;14.80;99.90
3715;DHT22;1873;49.988;8.674;2022-10-26T09:05:50;14.90;99.90
3715;DHT22;1873;49.988;8.674;2022-10-26T09:08:27;14.90;99.90
3715;DHT22;1873;49.988;8.674;2022-10-26T09:11:05;15.00;99.90
3715;DHT22;1873;49.988;8.674;2022-10-26T09:13:45;15.00;99.90
3715;DHT22;1873;49.988;8.674;2022-10-26T09:16:22;15.10;99.90
3715;DHT22;1873;49.988;8.674;2022-10-26T09:19:02;15.20;99.90
3715;DHT22;1873;49.988;8.674;2022-10-26T09:22:01;15.20;99.90
3715;DHT22;1873;49.988;8.674;2022-10-26T09:24:31;15.20;99.90
3715;DHT22;1873;49.988;8.674;2022-10-26T09:27:08;15.30;99.90
3715;DHT22;1873;49.988;8.674;2022-10-26T09:29:40;15.30;99.90
3715;DHT22;1873;49.988;8.674;2022-10-26T09:32:15;15.40;99.90
3715;DHT22;1873;49.988;8.674;2022-10-26T09:34:47;15.40;99.90
3715;DHT22;1873;49.988;8.674;2022-10-26T09:37:18;15.40;99.90
3715;DHT22;1873;49.988;8.674;2022-10-26T09:39:54;15.40;99.90
3715;DHT22;1873;49.988;8.674;2022-10-26T09:42:37;15.50;99.90
3715;DHT22;1873;49.988;8.674;2022-10-26T09:45:14;15.60;99.90
3715;DHT22;1873;49.988;8.674;2022-10-26T09:47:50;15.80;99.90
3715;DHT22;1873;49.988;8.674;2022-10-26T09:50:26;16.00;99.90
3715;DHT22;1873;49.988;8.674;2022-10-26T09:52:58;16.20;99.90
3715;DHT22;1873;49.988;8.674;2022-10-26T09:55:26;16.30;99.90
3715;DHT22;1873;49.988;8.674;2022-10-26T09:57:58;16.50;99.90
3715;DHT22;1873;49.988;8.674;2022-10-26T10:00:28;16.50;99.90
3715;DHT22;1873;49.988;8.674;2022-10-26T10:03:00;16.60;99.90
3715;DHT22;1873;49.988;8.674;2022-10-26T10:05:31;16.70;99.90
3715;DHT22;1873;49.988;8.674;2022-10-26T10:08:20;16.80;99.90
3715;DHT22;1873;49.988;8.674;2022-10-26T10:11:04;16.80;99.90
3715;DHT22;1873;49.988;8.674;2022-10-26T10:13:34;16.90;99.90
3715;DHT22;1873;49.988;8.674;2022-10-26T10:16:05;16.90;99.90
3715;DHT22;1873;49.988;8.674;2022-10-26T10:18:35;17.10;99.90
3715;DHT22;1873;49.988;8.674;2022-10-26T10:21:05;17.10;99.90
3715;DHT22;1873;49.988;8.674;2022-10-26T10:23:37;17.00;99.90
3715;DHT22;1873;49.988;8.674;2022-10-26T10:26:12;16.90;99.90
3715;DHT22;1873;49.988;8.674;2022-10-26T10:28:41;16.90;99.90
3715;DHT22;1873;49.988;8.674;2022-10-26T10:31:19;16.90;99.90
3715;DHT22;1873;49.988;8.674;2022-10-26T10:33:49;16.90;99.90
3715;DHT22;1873;49.988;8.674;2022-10-26T10:36:22;16.90;99.90
3715;DHT22;1873;49.988;8.674;2022-10-26T10:38:52;16.90;99.90
3715;DHT22;1873;49.988;8.674;2022-10-26T10:41:25;17.00;99.90
3715;DHT22;1873;49.988;8.674;2022-10-26T10:43:58;17.20;99.90
3715;DHT22;1873;49.988;8.674;2022-10-26T10:46:31;17.20;99.90
3715;DHT22;1873;49.988;8.674;2022-10-26T10:49:05;17.20;99.90
3715;DHT22;1873;49.988;8.674;2022-10-26T10:51:37;17.30;99.90
3715;DHT22;1873;49.988;8.674;2022-10-26T10:54:16;17.30;99.90
3715;DHT22;1873;49.988;8.674;2022-10-26T10:56:50;17.30;99.90
3715;DHT22;1873;49.988;8.674;2022-10-26T10:59:47;17.30;99.90
3715;DHT22;1873;49.988;8.674;2022-10-26T11:02:34;17.50;99.90
3715;DHT22;1873;49.988;8.674;2022-10-26T11:05:23;17.70;99.90
3715;DHT22;1873;49.988;8.674;2022-10-26T11:08:01;17.80;99.90
3715;DHT22;1873;49.988;8.674;2022-10-26T11:10:33;17.90;99.90
3715;DHT22;1873;49.988;8.674;2022-10-26T11:13:09;17.80;99.90
3715;DHT22;1873;49.988;8.674;2022-10-26T11:15:42;17.80;99.90
3715;DHT22;1873;49.988;8.674;2022-10-26T11:18:15;17.80;99.90
3715;DHT22;1873;49.988;8.674;2022-10-26T11:20:50;17.90;99.90
3715;DHT22;1873;49.988;8.674;2022-10-26T11:23:33;17.90;99.90
3715;DHT22;1873;49.988;8.674;2022-10-26T11:26:11;17.90;99.90
3715;DHT22;1873;49.988;8.674;2022-10-26T11:28:46;18.00;99.90
3715;DHT22;1873;49.988;8.674;2022-10-26T11:31:19;18.10;99.90
3715;DHT22;1873;49.988;8.674;2022-10-26T11:36:40;18.10;99.90
3715;DHT22;1873;49.988;8.674;2022-10-26T11:39:15;18.00;99.90
3715;DHT22;1873;49.988;8.674;2022-10-26T11:41:50;18.00;99.90
3715;DHT22;1873;49.988;8.674;2022-10-26T11:44:25;17.90;99.90
3715;DHT22;1873;49.988;8.674;2022-10-26T11:46:57;17.80;99.90
3715;DHT22;1873;49.988;8.674;2022-10-26T11:49:31;17.80;99.90
3715;DHT22;1873;49.988;8.674;2022-10-26T11:52:08;17.80;99.90
3715;DHT22;1873;49.988;8.674;2022-10-26T11:54:41;17.80;99.90
3715;DHT22;1873;49.988;8.674;2022-10-26T11:57:11;17.80;99.90
3715;DHT22;1873;49.988;8.674;2022-10-26T11:59:44;17.70;99.90
3715;DHT22;1873;49.988;8.674;2022-10-26T12:02:19;17.70;99.90
3715;DHT22;1873;49.988;8.674;2022-10-26T12:04:52;17.60;99.90
3715;DHT22;1873;49.988;8.674;2022-10-26T12:07:28;17.60;99.90
3715;DHT22;1873;49.988;8.674;2022-10-26T12:09:58;17.60;99.90
3715;DHT22;1873;49.988;8.674;2022-10-26T12:12:33;17.60;99.90
3715;DHT22;1873;49.988;8.674;2022-10-26T12:15:14;17.70;99.90
3715;DHT22;1873;49.988;8.674;2022-10-26T12:17:49;17.70;99.90
3715;DHT22;1873;49.988;8.674;2022-10-26T12:20:53;17.70;99.90
3715;DHT22;1873;49.988;8.674;2022-10-26T12:23:23;17.70;99.90
3715;DHT22;1873;49.988;8.674;2022-10-26T12:26:37;17.60;99.90
3715;DHT22;1873;49.988;8.674;2022-10-26T12:29:24;17.60;99.90
3715;DHT22;1873;49.988;8.674;2022-10-26T12:31:54;17.60;99.90
3715;DHT22;1873;49.988;8.674;2022-10-26T12:34:24;17.60;99.90
3715;DHT22;1873;49.988;8.674;2022-10-26T12:37:28;17.70;99.90
3715;DHT22;1873;49.988;8.674;2022-10-26T12:43:33;17.70;99.90
3715;DHT22;1873;49.988;8.674;2022-10-26T12:52:44;17.80;99.90
3715;DHT22;1873;49.988;8.674;2022-10-26T12:55:49;17.90;99.90
3715;DHT22;1873;49.988;8.674;2022-10-26T12:58:50;17.90;99.90
3715;DHT22;1873;49.988;8.674;2022-10-26T13:01:48;18.00;99.90
3715;DHT22;1873;49.988;8.674;2022-10-26T13:04:44;18.00;99.90
3715;DHT22;1873;49.988;8.674;2022-10-26T13:07:20;18.00;99.90
3715;DHT22;1873;49.988;8.674;2022-10-26T13:10:04;18.00;99.90
3715;DHT22;1873;49.988;8.674;2022-10-26T13:12:44;18.00;99.90
3715;DHT22;1873;49.988;8.674;2022-10-26T13:15:23;18.00;99.90
3715;DHT22;1873;49.988;8.674;2022-10-26T13:17:59;18.00;99.90
3715;DHT22;1873;49.988;8.674;2022-10-26T13:20:29;17.90;99.90
3715;DHT22;1873;49.988;8.674;2022-10-26T13:22:59;18.00;99.90
3715;DHT22;1873;49.988;8.674;2022-10-26T13:25:41;18.10;99.90
3715;DHT22;1873;49.988;8.674;2022-10-26T13:28:31;18.20;99.90
3715;DHT22;1873;49.988;8.674;2022-10-26T13:31:00;18.30;99.90
3715;DHT22;1873;49.988;8.674;2022-10-26T13:33:35;18.30;99.90
3715;DHT22;1873;49.988;8.674;2022-10-26T13:36:15;18.20;99.90
3715;DHT22;1873;49.988;8.674;2022-10-26T13:38:45;18.20;99.90
3715;DHT22;1873;49.988;8.674;2022-10-26T13:41:21;18.10;99.90
3715;DHT22;1873;49.988;8.674;2022-10-26T13:43:58;18.00;99.90
3715;DHT22;1873;49.988;8.674;2022-10-26T13:46:34;18.00;99.90
3715;DHT22;1873;49.988;8.674;2022-10-26T13:49:07;18.10;99.90
3715;DHT22;1873;49.988;8.674;2022-10-26T13:51:43;18.20;99.90
3715;DHT22;1873;49.988;8.674;2022-10-26T13:54:20;18.30;99.90
3715;DHT22;1873;49.988;8.674;2022-10-26T13:57:03;18.40;99.90
3715;DHT22;1873;49.988;8.674;2022-10-26T13:59:37;18.40;99.90
3715;DHT22;1873;49.988;8.674;2022-10-26T14:02:17;18.40;99.90
3715;DHT22;1873;49.988;8.674;2022-10-26T14:04:47;18.30;99.90
3715;DHT22;1873;49.988;8.674;2022-10-26T14:07:17;18.30;99.90
3715;DHT22;1873;49.988;8.674;2022-10-26T14:09:53;18.20;99.90
3715;DHT22;1873;49.988;8.674;2022-10-26T14:12:25;18.30;99.90
3715;DHT22;1873;49.988;8.674;2022-10-26T14:14:59;18.30;99.90
3715;DHT22;1873;49.988;8.674;2022-10-26T14:17:28;18.30;99.90
3715;DHT22;1873;49.988;8.674;2022-10-26T14:19:57;18.30;99.90
3715;DHT22;1873;49.988;8.674;2022-10-26T14:22:26;18.20;99.90
3715;DHT22;1873;49.988;8.674;2022-10-26T14:24:58;18.20;99.90
3715;DHT22;1873;49.988;8.674;2022-10-26T14:27:32;18.30;99.90
3715;DHT22;1873;49.988;8.674;2022-10-26T14:30:01;18.30;99.90
3715;DHT22;1873;49.988;8.674;2022-10-26T14:32:51;18.30;99.90
3715;DHT22;1873;49.988;8.674;2022-10-26T14:35:23;18.30;99.90
3715;DHT22;1873;49.988;8.674;2022-10-26T14:37:54;18.40;99.90
3715;DHT22;1873;49.988;8.674;2022-10-26T14:40:26;18.30;99.90
3715;DHT22;1873;49.988;8.674;2022-10-26T14:42:57;18.20;99.90
3715;DHT22;1873;49.988;8.674;2022-10-26T14:45:28;18.10;99.90
3715;DHT22;1873;49.988;8.674;2022-10-26T14:48:24;18.00;99.90
3715;DHT22;1873;49.988;8.674;2022-10-26T14:51:05;18.00;99.90
3715;DHT22;1873;49.988;8.674;2022-10-26T14:53:36;18.00;99.90
3715;DHT22;1873;49.988;8.674;2022-10-26T14:56:19;18.00;99.90
3715;DHT22;1873;49.988;8.674;2022-10-26T14:58:50;18.00;99.90
3715;DHT22;1873;49.988;8.674;2022-10-26T15:01:28;17.90;99.90
3715;DHT22;1873;49.988;8.674;2022-10-26T15:04:02;17.90;99.90
3715;DHT22;1873;49.988;8.674;2022-10-26T15:06:48;17.90;99.90
3715;DHT22;1873;49.988;8.674;2022-10-26T15:09:37;17.90;99.90
3715;DHT22;1873;49.988;8.674;2022-10-26T15:12:23;18.00;99.90
3715;DHT22;1873;49.988;8.674;2022-10-26T15:14:55;17.90;99.90
3715;DHT22;1873;49.988;8.674;2022-10-26T15:17:35;18.00;99.90
3715;DHT22;1873;49.988;8.674;2022-10-26T15:20:06;18.10;99.90
3715;DHT22;1873;49.988;8.674;2022-10-26T15:22:35;18.00;99.90
3715;DHT22;1873;49.988;8.674;2022-10-26T15:25:04;18.00;99.90
3715;DHT22;1873;49.988;8.674;2022-10-26T15:27:34;17.90;99.90
3715;DHT22;1873;49.988;8.674;2022-10-26T15:30:16;17.80;99.90
3715;DHT22;1873;49.988;8.674;2022-10-26T15:32:45;17.90;99.90
3715;DHT22;1873;49.988;8.674;2022-10-26T15:35:25;17.90;99.90
3715;DHT22;1873;49.988;8.674;2022-10-26T15:37:54;17.80;99.90
3715;DHT22;1873;49.988;8.674;2022-10-26T15:40:24;17.80;99.90
3715;DHT22;1873;49.988;8.674;2022-10-26T15:42:57;17.80;99.90
3715;DHT22;1873;49.988;8.674;2022-10-26T15:45:29;17.80;99.90
3715;DHT22;1873;49.988;8.674;2022-10-26T15:48:02;17.80;99.90
3715;DHT22;1873;49.988;8.674;2022-10-26T15:50:43;17.90;99.90
3715;DHT22;1873;49.988;8.674;2022-10-26T15:53:17;17.90;99.90
3715;DHT22;1873;49.988;8.674;2022-10-26T15:55:46;17.80;99.90
3715;DHT22;1873;49.988;8.674;2022-10-26T15:58:15;17.80;99.90
3715;DHT22;1873;49.988;8.674;2022-10-26T16:00:44;17.80;99.90
3715;DHT22;1873;49.988;8.674;2022-10-26T16:03:15;17.70;99.90
3715;DHT22;1873;49.988;8.674;2022-10-26T16:05:43;17.70;99.90
3715;DHT22;1873;49.988;8.674;2022-10-26T16:08:14;17.70;99.90
3715;DHT22;1873;49.988;8.674;2022-10-26T16:10:45;17.60;99.90
3715;DHT22;1873;49.988;8.674;2022-10-26T16:13:14;17.60;99.90
3715;DHT22;1873;49.988;8.674;2022-10-26T16:15:44;17.60;99.90
3715;DHT22;1873;49.988;8.674;2022-10-26T16:18:12;17.60;99.90
3715;DHT22;1873;49.988;8.674;2022-10-26T16:20:43;17.60;99.90
3715;DHT22;1873;49.988;8.674;2022-10-26T16:23:12;17.60;99.90
3715;DHT22;1873;49.988;8.674;2022-10-26T16:25:41;17.60;99.90
3715;DHT22;1873;49.988;8.674;2022-10-26T16:28:12;17.60;99.90
3715;DHT22;1873;49.988;8.674;2022-10-26T16:30:40;17.60;99.90
3715;DHT22;1873;49.988;8.674;2022-10-26T16:33:09;17.60;99.90
3715;DHT22;1873;49.988;8.674;2022-10-26T16:35:37;17.60;99.90
3715;DHT22;1873;49.988;8.674;2022-10-26T16:38:05;17.60;99.90
3715;DHT22;1873;49.988;8.674;2022-10-26T16:40:35;17.60;99.90
3715;DHT22;1873;49.988;8.674;2022-10-26T16:43:03;17.50;99.90
3715;DHT22;1873;49.988;8.674;2022-10-26T16:45:31;17.50;99.90
3715;DHT22;1873;49.988;8.674;2022-10-26T16:48:00;17.40;99.90
3715;DHT22;1873;49.988;8.674;2022-10-26T16:50:32;17.40;99.90
3715;DHT22;1873;49.988;8.674;2022-10-26T16:53:02;17.40;99.90
3715;DHT22;1873;49.988;8.674;2022-10-26T16:55:31;17.30;99.90